Latest Weather Observations for Omeo

IDV60801

Issued at 4:02 pm EST Friday 3 July 2015 (issued every 30 minutes, with the page automatically refreshed every 10 minutes)

About weather observations | Map of weather stations | Latest weather observations for VIC | Other Formats
Station Details ID: 083090 Name: OMEO Lat: -37.10 Lon: 147.60 Height: 689.8 m
Data from the previous 72 hours. | See also: Recent months at Omeo
Date/Time
EST
Temp
°C
App
Temp
°C
Dew
Point
Rel
Hum
%
Delta-T
°C
Wind Press
QNH
hPa
Press
MSL
hPa
Rain
since 9 am
mm
Dir
 
Spd
km/h
Gust
km/h
Spd
kts
Gust
kts
03/04:00pm 6.9 3.9 0.8 65 2.5 NW 6 9 3 5 1023.7 1025.0 0.0
03/03:30pm 6.8 3.5 0.3 63 2.6 NNW 7 11 4 6 1023.6 1024.8 0.0
03/03:00pm 6.9 3.3 0.8 65 2.5 NNW 9 15 5 8 1023.6 1024.8 0.0
03/02:30pm 6.5 2.2 0.8 67 2.4 NNE 13 19 7 10 1023.6 1024.8 0.0
03/02:00pm 5.6 0.7 -0.4 65 2.4 N 15 24 8 13 1023.7 1025.0 0.0
03/01:30pm 6.3 1.9 0.6 67 2.3 N 13 19 7 10 1024.1 1025.4 0.0
03/01:00pm 6.0 2.4 0.6 68 2.2 N 9 13 5 7 1024.6 1025.8 0.0
03/12:30pm 4.9 1.2 -0.1 70 2.0 N 9 15 5 8 1025.1 1026.4 0.0
03/12:00pm 4.7 1.4 -0.1 71 1.9 NE 7 13 4 7 1026.0 1027.2 0.0
03/11:30am 4.5 1.7 2.2 85 1.0 NNE 6 7 3 4 1026.5 1027.8 0.0
03/11:00am 3.6 0.3 2.4 92 0.5 NNW 9 11 5 6 1026.9 1028.2 0.0
03/10:30am 3.0 0.2 2.3 95 0.3 NNW 6 7 3 4 1027.1 1028.4 0.0
03/10:00am 2.5 -0.3 2.1 97 0.2 N 6 9 3 5 1026.9 1028.2 0.0
03/09:30am 2.1 -0.9 1.7 97 0.2 NNW 7 7 4 4 1026.8 1028.1 0.0
03/09:00am 1.4 -1.6 1.0 97 0.2 NNW 6 7 3 4 1026.7 1028.0 2.8
03/08:30am 1.3 -0.9 0.9 97 0.2 S 2 6 1 3 1026.5 1027.8 2.8
03/08:00am 0.9 -1.0 0.5 97 0.2 CALM 0 0 0 0 1026.4 1027.7 2.8
03/07:30am 0.5 -1.5 0.1 97 0.2 CALM 0 0 0 0 1026.2 1027.5 2.8
03/07:00am 0.4 -2.0 -0.2 96 0.2 NNE 2 7 1 4 1026.0 1027.2 2.8
03/06:30am 0.2 -1.8 -0.4 96 0.2 CALM 0 0 0 0 1025.7 1027.0 2.8
03/06:00am 0.5 -1.5 -0.1 96 0.2 CALM 0 6 0 3 1025.7 1027.0 2.8
03/05:30am 0.5 -2.6 -0.1 96 0.2 NNW 6 9 3 5 1025.5 1026.8 2.8
03/05:00am 0.7 -1.3 0.1 96 0.2 CALM 0 4 0 2 1025.5 1026.8 2.8
03/04:30am 0.5 -1.9 -0.2 95 0.3 ESE 2 7 1 4 1025.5 1026.8 2.6
03/04:00am 0.9 -1.1 0.2 95 0.3 CALM 0 0 0 0 1025.5 1026.8 2.6
03/03:30am 0.8 -1.2 -0.1 94 0.3 CALM 0 0 0 0 1025.5 1026.8 2.6
03/03:00am 1.2 -0.7 0.3 94 0.3 CALM 0 0 0 0 1025.5 1026.8 2.4
03/02:30am 1.3 -1.0 0.3 93 0.4 SW 2 7 1 4 1025.9 1027.1 2.2
03/02:00am 1.5 -0.4 0.5 93 0.4 CALM 0 9 0 5 1025.6 1026.9 2.2
03/01:30am 1.1 -1.6 0.1 93 0.4 NW 4 6 2 3 1025.5 1026.8 2.0
03/01:00am 1.2 -1.9 -0.1 91 0.5 SSE 6 7 3 4 1025.4 1026.7 2.0
03/12:30am 1.9 -1.3 0.6 91 0.5 S 7 11 4 6 1025.6 1026.9 2.0
03/12:00am 1.1 -2.3 -0.7 88 0.7 SE 7 7 4 4 1025.6 1026.9 1.8
 
Date/Time
EST
Temp
°C
App
Temp
°C
Dew
Point
Rel
Hum
%
Delta-T
°C
Wind Press
QNH
hPa
Press
MSL
hPa
Rain
since 9 am
mm
Dir
 
Spd
km/h
Gust
km/h
Spd
kts
Gust
kts
02/11:30pm 1.7 -1.5 -0.5 85 0.8 SSE 6 11 3 6 1025.6 1026.9 1.8
02/11:00pm 2.0 -2.1 -0.2 85 0.8 S 11 17 6 9 1025.5 1026.8 1.8
02/10:30pm 1.8 -1.9 0.0 88 0.7 S 9 11 5 6 1025.6 1026.9 1.8
02/10:00pm 2.1 -1.5 0.3 88 0.7 SSE 9 17 5 9 1025.5 1026.8 1.8
02/09:30pm 2.2 -1.1 0.4 88 0.7 SE 7 11 4 6 1025.5 1026.8 1.8
02/09:00pm 2.6 -1.1 0.2 84 0.9 S 9 13 5 7 1025.4 1026.7 1.8
02/08:30pm 3.1 -0.6 0.2 81 1.1 S 9 17 5 9 1024.9 1026.1 1.6
02/08:00pm 2.9 -0.3 -0.2 80 1.2 SSE 6 9 3 5 1024.9 1026.1 1.6
02/07:30pm 3.0 -0.7 -0.1 80 1.2 S 9 17 5 9 1024.5 1025.7 1.6
02/07:00pm 2.5 -1.7 -0.6 80 1.2 S 11 15 6 8 1024.1 1025.4 1.6
02/06:30pm 2.0 -1.8 -0.4 84 0.9 SSE 9 15 5 8 1023.9 1025.2 1.6
02/06:00pm 1.9 -1.4 -0.2 86 0.8 SSE 7 17 4 9 1023.5 1024.7 1.6
02/05:30pm 2.7 -1.0 0.1 83 1.0 S 9 19 5 10 1023.3 1024.5 1.6
02/05:00pm 3.7 -0.6 -1.3 70 1.9 S 11 20 6 11 1022.5 1023.8 1.6
02/04:30pm 4.2 0.3 -1.2 68 2.1 S 9 24 5 13 1022.1 1023.3 1.6
02/04:00pm 5.1 0.9 -1.1 64 2.4 S 11 24 6 13 1021.6 1022.8 1.6
02/03:30pm 5.7 0.3 -1.2 61 2.7 S 17 28 9 15 1021.3 1022.5 1.6
02/03:00pm 5.8 0.5 -0.7 63 2.6 S 17 33 9 18 1020.7 1021.9 1.6
02/02:30pm 5.5 0.3 0.3 69 2.1 SSE 17 28 9 15 1020.1 1021.3 1.6
02/02:00pm 5.5 0.8 1.1 73 1.8 SSE 15 28 8 15 1019.5 1020.7 1.6
02/01:30pm 4.9 -0.3 2.3 83 1.1 S 19 32 10 17 1019.3 1020.5 1.6
02/01:00pm 4.0 -1.2 2.5 90 0.6 S 19 39 10 21 1019.4 1020.6 1.6
02/12:30pm 2.7 -3.0 0.4 85 0.9 S 20 35 11 19 1019.1 1020.3 1.2
02/12:20pm 3.8 -2.8 -0.2 75 1.6 SSW 24 44 13 24 1018.7 1019.8 0.2
02/12:00pm 9.2 2.1 -1.5 47 4.3 WNW 26 41 14 22 1016.6 1017.7 0.0
02/11:30am 9.5 3.8 -0.4 50 4.1 WNW 19 28 10 15 1017.2 1018.3 0.0
02/11:00am 7.2 2.3 4.2 81 1.4 N 19 28 10 15 1017.7 1018.9 0.0
02/10:30am 5.9 0.4 4.1 88 0.8 N 22 30 12 16 1017.9 1019.1 0.0
02/10:00am 4.3 -0.4 3.1 92 0.5 N 17 24 9 13 1018.4 1019.5 0.0
02/09:30am 4.2 -0.5 3.0 92 0.5 N 17 22 9 12 1018.2 1019.3 0.0
02/09:00am 4.0 -0.1 2.5 90 0.6 NNW 13 19 7 10 1018.3 1019.4 0.0
02/08:30am 3.8 0.1 2.5 91 0.5 N 11 17 6 9 1018.1 1019.2 0.0
02/08:00am 3.6 -0.5 2.4 92 0.5 NNW 13 19 7 10 1018.2 1019.3 0.0
02/07:30am 3.6 -0.9 2.4 92 0.5 NNW 15 22 8 12 1018.1 1019.2 0.0
02/07:00am 3.5 -1.3 2.5 93 0.4 NNW 17 24 9 13 1017.7 1018.9 0.0
02/06:30am 3.5 -1.9 2.5 93 0.4 NNW 20 32 11 17 1018.1 1019.2 0.0
02/06:00am 3.5 -2.3 2.5 93 0.4 N 22 30 12 16 1017.8 1019.0 0.0
02/05:30am 3.5 -1.7 2.3 92 0.5 NNW 19 30 10 16 1018.3 1019.4 0.0
02/05:00am 3.5 -1.9 2.2 91 0.5 NNW 20 28 11 15 1018.4 1019.5 0.0
02/04:30am 3.2 -2.1 1.7 90 0.6 NNW 19 26 10 14 1018.6 1019.7 0.0
02/04:00am 3.2 -2.2 1.4 88 0.7 NNW 19 26 10 14 1019.4 1020.6 0.0
02/03:30am 2.9 -2.1 1.1 88 0.7 NNW 17 26 9 14 1019.9 1021.0 0.0
02/03:00am 3.1 -2.5 1.0 86 0.8 N 20 30 11 16 1019.9 1021.0 0.0
02/02:30am 3.1 -1.6 0.8 85 0.9 N 15 22 8 12 1020.2 1021.4 0.0
02/02:00am 2.6 -1.8 0.5 86 0.8 NNW 13 19 7 10 1020.5 1021.7 0.0
02/01:30am 2.7 -1.7 0.4 85 0.9 NNW 13 17 7 9 1020.6 1021.8 0.0
02/01:00am 2.3 -1.8 0.0 85 0.9 NNW 11 17 6 9 1020.7 1021.9 0.0
02/12:30am 2.1 -2.7 0.0 86 0.8 NNW 15 19 8 10 1021.2 1022.3 0.0
02/12:00am 1.7 -2.8 -0.1 88 0.7 N 13 19 7 10 1021.3 1022.5 0.0
 
Date/Time
EST
Temp
°C
App
Temp
°C
Dew
Point
Rel
Hum
%
Delta-T
°C
Wind Press
QNH
hPa
Press
MSL
hPa
Rain
since 9 am
mm
Dir
 
Spd
km/h
Gust
km/h
Spd
kts
Gust
kts
01/11:30pm 1.9 -3.3 0.0 87 0.7 NNW 17 24 9 13 1021.5 1022.7 0.0
01/11:00pm 2.0 -2.8 -0.1 86 0.8 N 15 22 8 12 1021.9 1023.1 0.0
01/10:30pm 2.3 -2.5 0.4 87 0.7 NNW 15 20 8 11 1022.0 1023.2 0.0
01/10:00pm 1.8 -2.7 -0.1 87 0.7 NNW 13 19 7 10 1022.4 1023.6 0.0
01/09:30pm 1.8 -2.7 0.0 88 0.7 NNW 13 19 7 10 1023.1 1024.3 0.0
01/09:00pm 1.3 -2.9 -0.8 86 0.8 NNW 11 15 6 8 1023.1 1024.3 0.0
01/08:30pm 1.0 -2.3 -0.9 87 0.7 WNW 6 11 3 6 1023.2 1024.4 0.0
01/08:00pm 1.9 -1.8 0.0 87 0.7 NNW 9 13 5 7 1023.4 1024.6 0.0
01/07:30pm 2.0 -2.1 -0.1 86 0.8 NNW 11 15 6 8 1023.0 1024.2 0.0
01/07:00pm 2.3 -1.8 0.0 85 0.9 N 11 17 6 9 1022.9 1024.1 0.0
01/06:30pm 2.6 -1.9 0.0 83 1.0 NNW 13 17 7 9 1023.0 1024.2 0.0
01/06:00pm 3.1 -1.3 0.2 81 1.1 NNW 13 17 7 9 1022.6 1023.9 0.0
01/05:30pm 3.8 -0.2 0.5 79 1.3 NNW 11 17 6 9 1022.8 1024.0 0.0
01/05:00pm 4.6 0.6 0.6 75 1.6 N 11 17 6 9 1022.5 1023.8 0.0
01/04:30pm 5.7 1.0 0.7 70 2.0 NNW 15 26 8 14 1022.6 1023.9 0.0
01/04:00pm 7.2 1.6 1.1 65 2.5 NNW 20 30 11 16 1022.3 1023.5 0.0
01/03:30pm 7.9 1.9 1.1 62 2.9 N 22 32 12 17 1022.1 1023.3 0.0
01/03:00pm 8.5 2.5 1.0 59 3.2 N 22 37 12 20 1022.0 1023.2 0.0
01/02:30pm 9.4 4.1 1.6 58 3.4 NNW 19 30 10 16 1022.0 1023.2 0.0
01/02:00pm 9.4 4.2 2.3 61 3.1 N 19 24 10 13 1022.2 1023.4 0.0
01/01:30pm 9.2 4.2 1.1 57 3.5 N 17 26 9 14 1022.9 1024.1 0.0
01/01:00pm 9.8 5.3 1.9 58 3.4 N 15 24 8 13 1023.3 1024.5 0.0
01/12:30pm 9.4 5.1 1.3 57 3.5 NNE 13 19 7 10 1023.9 1025.2 0.0
01/12:00pm 9.0 5.1 1.2 58 3.3 NNE 11 17 6 9 1024.7 1025.9 0.0
01/11:30am 8.0 4.0 3.1 71 2.2 N 13 19 7 10 1025.4 1026.7 0.0
01/11:00am 6.7 2.7 2.8 76 1.7 N 13 17 7 9 1026.2 1027.5 0.0
01/10:30am 5.6 2.4 3.1 84 1.1 N 9 15 5 8 1026.5 1027.8 0.0
01/10:00am 5.0 1.8 3.3 89 0.7 NNW 9 13 5 7 1026.5 1027.8 0.0
01/09:30am 4.2 1.6 3.2 93 0.4 NNW 6 11 3 6 1026.6 1027.8 0.0
01/09:00am 3.7 1.4 3.0 95 0.3 N 4 9 2 5 1026.5 1027.7 0.0
01/08:30am 3.4 0.7 2.7 95 0.3 NW 6 7 3 4 1026.7 1027.9 0.0
01/08:00am 3.1 0.4 2.4 95 0.3 NW 6 9 3 5 1026.7 1027.9 0.0
01/07:30am 3.0 0.6 2.3 95 0.3 NE 4 7 2 4 1026.7 1027.9 0.0
01/07:00am 2.9 -0.1 2.2 95 0.3 NW 7 11 4 6 1026.5 1027.7 0.0
01/06:30am 3.0 0.6 2.3 95 0.3 W 4 6 2 3 1026.2 1027.3 0.0
01/06:00am 3.0 0.2 2.3 95 0.3 NNW 6 9 3 5 1025.9 1027.0 0.0
01/05:30am 3.1 1.1 2.4 95 0.3 N 2 7 1 4 1025.9 1027.0 0.0
01/05:00am 3.1 1.5 2.2 94 0.4 CALM 0 0 0 0 1025.7 1026.9 0.0
01/04:30am 3.2 1.6 2.3 94 0.4 CALM 0 0 0 0 1026.0 1027.1 0.0
01/04:00am 3.3 1.7 2.4 94 0.4 CALM 0 0 0 0 1025.9 1027.0 0.0
01/03:30am 3.3 1.7 2.4 94 0.4 CALM 0 0 0 0 1026.2 1027.3 0.0
01/03:00am 3.4 1.8 2.5 94 0.4 CALM 0 0 0 0 1026.3 1027.5 0.0
01/02:30am 3.4 0.7 2.5 94 0.4 WNW 6 11 3 6 1026.4 1027.6 0.0
01/02:00am 3.5 0.8 2.5 93 0.4 NW 6 11 3 6 1026.5 1027.7 0.0
01/01:30am 3.4 1.8 2.4 93 0.4 CALM 0 0 0 0 1026.5 1027.7 0.0
01/01:00am 3.6 2.0 2.4 92 0.5 CALM 0 0 0 0 1026.5 1027.7 0.0
01/12:30am 3.7 2.1 2.5 92 0.5 CALM 0 0 0 0 1026.7 1027.9 0.0
01/12:00am 3.6 2.0 2.4 92 0.5 CALM 0 0 0 0 1026.8 1028.0 0.0
 
Date/Time
EST
Temp
°C
App
Temp
°C
Dew
Point
Rel
Hum
%
Delta-T
°C
Wind Press
QNH
hPa
Press
MSL
hPa
Rain
since 9 am
mm
Dir
 
Spd
km/h
Gust
km/h
Spd
kts
Gust
kts
30/11:30pm 3.5 1.9 2.2 91 0.5 CALM 0 6 0 3 1027.0 1028.2 0.0
30/11:00pm 3.9 2.3 2.4 90 0.6 CALM 0 0 0 0 1026.9 1028.1 0.0
30/10:30pm 3.9 2.3 2.3 89 0.7 CALM 0 0 0 0 1027.0 1028.2 0.0
30/10:00pm 4.1 2.5 2.3 88 0.7 CALM 0 0 0 0 1027.1 1028.3 0.0
30/09:30pm 4.3 2.4 2.7 89 0.7 SW 2 6 1 3 1027.1 1028.3 0.0
30/09:00pm 4.6 1.9 2.9 89 0.7 WSW 6 6 3 3 1027.0 1028.2 0.0
30/08:30pm 4.3 2.0 2.7 89 0.7 SE 4 7 2 4 1027.0 1028.2 0.0
30/08:00pm 4.7 2.0 2.7 87 0.8 SW 6 9 3 5 1026.9 1028.1 0.0
30/07:30pm 5.1 2.2 2.8 85 1.0 S 7 9 4 5 1026.8 1028.0 0.0
30/07:00pm 5.8 3.1 3.5 85 1.0 SSE 7 13 4 7 1026.7 1027.9 0.0
30/06:30pm 5.8 1.9 3.5 85 1.0 SSE 13 19 7 10 1026.5 1027.7 0.0
30/06:00pm 6.0 2.5 3.5 84 1.1 SE 11 17 6 9 1026.4 1027.6 0.0
30/05:30pm 6.4 2.6 4.1 85 1.0 SSE 13 17 7 9 1026.1 1027.2 0.0
30/05:00pm 6.3 3.7 4.1 86 1.0 SSW 7 11 4 6 1025.7 1026.9 0.0
30/04:30pm 6.4 2.6 3.9 84 1.1 SSE 13 19 7 10 1025.4 1026.6 0.0

Other Formats:

Comma delimited format used in spreadsheet applications
http://www.bom.gov.au/fwo/IDV60801/IDV60801.94908.axf

JavaScript Object Notation format (JSON) in row-major order
http://www.bom.gov.au/fwo/IDV60801/IDV60801.94908.json